createdAt,value
2023-04-07T00:02:08.797Z,39.49
2023-04-07T00:04:35.819Z,39.71
2023-04-07T00:07:03.278Z,40.10
2023-04-07T00:09:30.034Z,39.86
2023-04-07T00:11:57.128Z,39.83
2023-04-07T00:14:24.007Z,39.75
2023-04-07T00:16:51.076Z,39.92
2023-04-07T00:19:17.974Z,39.63
2023-04-07T00:21:45.045Z,40.15
2023-04-07T00:24:13.005Z,40.04
2023-04-07T00:26:43.386Z,39.93
2023-04-07T00:29:10.143Z,40.15
2023-04-07T00:31:37.349Z,39.79
2023-04-07T00:34:04.632Z,39.90
2023-04-07T00:36:32.274Z,40.22
2023-04-07T00:38:59.218Z,40.21
2023-04-07T00:41:26.340Z,40.13
2023-04-07T00:43:53.492Z,40.12
2023-04-07T00:46:21.907Z,40.03
2023-04-07T00:48:48.719Z,40.06
2023-04-07T00:51:16.015Z,40.18
2023-04-07T00:53:43.005Z,39.90
2023-04-07T00:56:10.369Z,40.58
2023-04-07T00:58:37.089Z,40.50
2023-04-07T01:01:15.939Z,40.13
2023-04-07T01:03:54.287Z,40.34
2023-04-07T01:06:24.339Z,40.32
2023-04-07T01:08:59.244Z,40.62
2023-04-07T01:11:43.034Z,40.34
2023-04-07T01:14:10.519Z,40.31
2023-04-07T01:16:48.519Z,40.40
2023-04-07T01:19:37.760Z,40.63
2023-04-07T01:22:10.054Z,40.54
2023-04-07T01:25:04.953Z,40.52
2023-04-07T01:27:53.760Z,40.47
2023-04-07T01:30:20.544Z,40.52
2023-04-07T01:32:51.723Z,40.84
2023-04-07T01:35:18.662Z,40.53
2023-04-07T01:37:48.794Z,40.52
2023-04-07T01:40:15.844Z,40.65
2023-04-07T01:42:43.268Z,40.89
2023-04-07T01:45:10.373Z,40.98
2023-04-07T01:47:37.721Z,40.78
2023-04-07T01:50:05.518Z,40.72
2023-04-07T01:52:33.569Z,40.62
2023-04-07T01:55:00.350Z,40.66
2023-04-07T01:57:27.475Z,40.62
2023-04-07T01:59:54.279Z,40.84
2023-04-07T02:02:21.450Z,40.89
2023-04-07T02:04:51.310Z,40.89
2023-04-07T02:07:51.967Z,41.22
2023-04-07T02:10:20.763Z,40.96
2023-04-07T02:12:47.824Z,40.89
2023-04-07T02:15:14.583Z,40.90
2023-04-07T02:17:42.746Z,40.89
2023-04-07T02:20:10.631Z,40.95
2023-04-07T02:22:38.529Z,41.03
2023-04-07T02:25:41.180Z,40.99
2023-04-07T02:28:08.281Z,41.12
2023-04-07T02:30:35.629Z,40.82
2023-04-07T02:33:02.988Z,40.96
2023-04-07T02:35:29.847Z,41.08
2023-04-07T02:37:56.965Z,40.69
2023-04-07T02:40:23.779Z,40.88
2023-04-07T02:42:50.906Z,40.92
2023-04-07T02:45:17.655Z,40.93
2023-04-07T02:47:44.811Z,40.75
2023-04-07T02:50:11.663Z,41.16
2023-04-07T02:52:38.750Z,41.00
2023-04-07T02:55:06.041Z,41.34
2023-04-07T02:57:33.144Z,41.15
2023-04-07T02:59:59.879Z,40.71
2023-04-07T03:02:26.969Z,40.82
2023-04-07T03:04:53.922Z,40.95
2023-04-07T03:07:20.998Z,41.17
2023-04-07T03:09:47.762Z,40.94
2023-04-07T03:12:15.108Z,40.87
2023-04-07T03:14:41.925Z,40.96
2023-04-07T03:17:09.054Z,41.20
2023-04-07T03:19:36.122Z,40.97
2023-04-07T03:22:03.188Z,40.95
2023-04-07T03:24:30.002Z,40.86
2023-04-07T03:26:57.392Z,41.01
2023-04-07T03:29:24.243Z,41.11
2023-04-07T03:31:51.338Z,40.77
2023-04-07T03:34:18.132Z,41.08
2023-04-07T03:36:45.168Z,41.39
2023-04-07T03:39:11.928Z,40.93
2023-04-07T03:41:39.078Z,41.27
2023-04-07T03:44:05.908Z,40.82
2023-04-07T03:46:33.032Z,41.24
2023-04-07T03:48:59.850Z,41.18
2023-04-07T03:51:27.929Z,41.37
2023-04-07T03:53:55.002Z,41.62
2023-04-07T03:56:22.528Z,41.57
2023-04-07T03:58:49.398Z,41.59
2023-04-07T04:01:17.013Z,41.61
2023-04-07T04:03:44.044Z,41.53
2023-04-07T04:06:11.282Z,41.75
2023-04-07T04:08:38.052Z,41.49
2023-04-07T04:11:05.447Z,41.49
2023-04-07T04:13:32.323Z,41.37
2023-04-07T04:15:59.463Z,41.69
2023-04-07T04:18:26.311Z,41.57
2023-04-07T04:20:53.456Z,41.57
2023-04-07T04:23:20.281Z,41.57
2023-04-07T04:25:47.317Z,41.41
2023-04-07T04:28:14.115Z,41.48
2023-04-07T04:30:41.197Z,41.69
2023-04-07T04:33:07.990Z,41.77
2023-04-07T04:35:35.411Z,41.51
2023-04-07T04:38:02.178Z,41.95
2023-04-07T04:40:29.315Z,41.75
2023-04-07T04:42:56.197Z,41.59
2023-04-07T04:45:23.296Z,41.85
2023-04-07T04:47:50.098Z,41.58
2023-04-07T04:50:17.266Z,41.59
2023-04-07T04:52:44.652Z,41.87
2023-04-07T04:55:13.986Z,41.55
2023-04-07T04:57:41.313Z,41.82
2023-04-07T05:00:09.429Z,41.35
2023-04-07T05:02:36.964Z,41.85
2023-04-07T05:05:04.672Z,41.86
2023-04-07T05:07:31.465Z,41.58
2023-04-07T05:09:58.514Z,41.67
2023-04-07T05:12:25.271Z,41.62
2023-04-07T05:14:52.340Z,42.03
2023-04-07T05:17:19.138Z,42.06
2023-04-07T05:19:46.192Z,41.53
2023-04-07T05:22:13.018Z,41.87
2023-04-07T05:24:40.708Z,41.54
2023-04-07T05:27:07.549Z,41.77
2023-04-07T05:29:34.624Z,41.88
2023-04-07T05:32:01.702Z,41.78
2023-04-07T05:34:28.930Z,41.75
2023-04-07T05:36:55.938Z,42.08
2023-04-07T05:39:23.062Z,41.93
2023-04-07T05:41:49.828Z,41.92
2023-04-07T05:44:16.935Z,41.92
2023-04-07T05:46:43.736Z,41.99
2023-04-07T05:49:19.569Z,41.80
2023-04-07T05:51:48.808Z,41.99
2023-04-07T05:54:16.598Z,41.70
2023-04-07T05:56:43.396Z,42.06
2023-04-07T05:59:10.696Z,42.01
2023-04-07T06:01:37.435Z,41.90
2023-04-07T06:04:04.697Z,41.83
2023-04-07T06:06:31.489Z,41.97
2023-04-07T06:08:58.744Z,41.98
2023-04-07T06:11:26.553Z,41.84
2023-04-07T06:13:53.680Z,42.06
2023-04-07T06:16:20.488Z,41.91
2023-04-07T06:18:47.648Z,41.84
2023-04-07T06:21:14.461Z,42.35
2023-04-07T06:23:41.504Z,41.68
2023-04-07T06:26:12.203Z,41.85
2023-04-07T06:28:39.752Z,41.93
2023-04-07T06:31:08.751Z,41.82
2023-04-07T06:33:36.113Z,41.93
2023-04-07T06:36:02.904Z,42.01
2023-04-07T06:38:30.004Z,41.95
2023-04-07T06:40:56.790Z,42.03
2023-04-07T06:43:23.878Z,41.55
2023-04-07T06:45:50.753Z,42.18
2023-04-07T06:48:17.847Z,41.96
2023-04-07T06:50:49.383Z,41.97
2023-04-07T06:53:16.539Z,41.94
2023-04-07T06:55:43.357Z,41.87
2023-04-07T06:58:10.493Z,41.90
2023-04-07T07:00:37.267Z,41.73
2023-04-07T07:03:04.534Z,41.91
2023-04-07T07:05:31.621Z,41.90
2023-04-07T07:07:58.692Z,42.20
2023-04-07T07:10:25.486Z,42.15
2023-04-07T07:12:52.570Z,41.78
2023-04-07T07:15:19.339Z,41.96
2023-04-07T07:17:46.504Z,42.12
2023-04-07T07:20:13.425Z,42.19
2023-04-07T07:22:41.413Z,42.38
2023-04-07T07:25:08.355Z,42.20
2023-04-07T07:27:35.811Z,42.74
2023-04-07T07:30:02.694Z,42.46
2023-04-07T07:32:29.900Z,42.53
2023-04-07T07:34:56.746Z,42.29
2023-04-07T07:37:23.963Z,42.32
2023-04-07T07:39:50.928Z,42.34
2023-04-07T07:42:18.148Z,42.28
2023-04-07T07:44:45.040Z,42.42
2023-04-07T07:47:12.555Z,42.09
2023-04-07T07:49:39.743Z,42.48
2023-04-07T07:52:08.188Z,42.45
2023-04-07T07:54:35.991Z,42.35
2023-04-07T07:57:03.204Z,42.54
2023-04-07T07:59:31.114Z,42.73
2023-04-07T08:01:58.600Z,42.56
2023-04-07T08:04:25.499Z,42.68
2023-04-07T08:06:52.696Z,42.33
2023-04-07T08:09:19.869Z,42.42
2023-04-07T08:11:48.544Z,42.61
2023-04-07T08:14:15.848Z,42.73
2023-04-07T08:16:43.501Z,43.38
2023-04-07T08:19:10.845Z,43.37
2023-04-07T08:21:37.956Z,43.28
2023-04-07T08:24:04.943Z,43.08
2023-04-07T08:26:32.226Z,43.60
2023-04-07T08:28:59.038Z,43.41
2023-04-07T08:31:26.467Z,43.27
2023-04-07T08:33:57.683Z,43.10
2023-04-07T08:36:26.360Z,43.46
2023-04-07T08:38:53.270Z,43.46
2023-04-07T08:41:24.863Z,43.42
2023-04-07T08:43:51.745Z,43.48
2023-04-07T08:46:19.443Z,43.21
2023-04-07T08:48:46.682Z,43.32
2023-04-07T08:51:13.824Z,43.34
2023-04-07T08:53:50.287Z,43.66
2023-04-07T08:56:21.420Z,43.16
2023-04-07T08:58:48.726Z,43.30
2023-04-07T09:01:18.794Z,43.20
2023-04-07T09:03:46.487Z,43.12
2023-04-07T09:06:14.302Z,43.22
2023-04-07T09:08:41.094Z,43.24
2023-04-07T09:11:08.200Z,42.99
2023-04-07T09:13:35.004Z,43.30
2023-04-07T09:16:02.448Z,43.26
2023-04-07T09:18:29.393Z,43.43
2023-04-07T09:21:02.782Z,42.98
2023-04-07T09:23:39.618Z,42.79
2023-04-07T09:26:25.123Z,42.95
2023-04-07T09:28:57.229Z,43.63
2023-04-07T09:31:26.552Z,43.06
2023-04-07T09:33:53.482Z,43.28
2023-04-07T09:36:20.548Z,42.95
2023-04-07T09:38:47.312Z,43.69
2023-04-07T09:41:17.287Z,43.04
2023-04-07T09:43:45.414Z,43.19
2023-04-07T09:46:14.875Z,43.35
2023-04-07T09:48:42.660Z,43.05
2023-04-07T09:51:14.557Z,43.11
2023-04-07T09:53:49.452Z,43.29
2023-04-07T09:56:22.445Z,43.26
2023-04-07T09:58:51.799Z,43.55
2023-04-07T10:01:19.349Z,43.85
2023-04-07T10:03:47.406Z,44.03
2023-04-07T10:06:14.954Z,43.56
2023-04-07T10:08:42.651Z,43.30
2023-04-07T10:11:10.017Z,43.50
2023-04-07T10:13:37.743Z,43.60
2023-04-07T10:16:06.209Z,43.17
2023-04-07T10:18:34.251Z,43.19
2023-04-07T10:21:05.271Z,43.19
2023-04-07T10:23:49.493Z,43.29
2023-04-07T10:26:19.308Z,43.17
2023-04-07T10:28:48.327Z,43.61
2023-04-07T10:31:15.601Z,43.30
2023-04-07T10:33:50.100Z,42.90
2023-04-07T10:36:18.699Z,43.11
2023-04-07T10:39:07.312Z,43.52
2023-04-07T10:41:37.764Z,43.34
2023-04-07T10:44:05.099Z,43.41
2023-04-07T10:46:48.663Z,43.35
2023-04-07T10:49:18.602Z,43.38
2023-04-07T10:52:06.483Z,43.35
2023-04-07T10:54:33.198Z,43.06
2023-04-07T10:57:03.455Z,43.65
2023-04-07T10:59:30.836Z,43.55
2023-04-07T11:02:13.038Z,43.71
2023-04-07T11:04:43.879Z,43.79
2023-04-07T11:07:11.616Z,44.31
2023-04-07T11:09:38.561Z,43.83
2023-04-07T11:12:06.323Z,43.49
2023-04-07T11:14:33.590Z,43.68
2023-04-07T11:17:03.488Z,43.73
2023-04-07T11:19:31.476Z,43.68
2023-04-07T11:22:26.675Z,43.54
2023-04-07T11:24:56.374Z,43.50
2023-04-07T11:27:23.748Z,43.73
2023-04-07T11:29:50.500Z,43.51
2023-04-07T11:32:25.446Z,43.50
2023-04-07T11:34:52.526Z,43.81
2023-04-07T11:37:24.914Z,43.48
2023-04-07T11:39:53.522Z,43.49
2023-04-07T11:42:36.978Z,43.80
2023-04-07T11:45:05.921Z,43.63
2023-04-07T11:47:38.069Z,43.69
2023-04-07T11:50:05.241Z,44.56
2023-04-07T11:52:42.433Z,43.55
2023-04-07T11:55:21.964Z,43.88
2023-04-07T11:57:51.332Z,44.07
2023-04-07T12:00:18.625Z,44.24
2023-04-07T12:02:45.859Z,43.79
2023-04-07T12:05:12.857Z,43.43
2023-04-07T12:07:41.978Z,43.69
2023-04-07T12:10:21.887Z,43.74
2023-04-07T12:12:49.349Z,44.21
2023-04-07T12:15:16.674Z,44.28
2023-04-07T12:17:47.874Z,43.93
2023-04-07T12:20:15.623Z,44.22
2023-04-07T12:22:42.851Z,43.50
2023-04-07T12:25:09.711Z,44.57
2023-04-07T12:27:43.204Z,44.41
2023-04-07T12:30:11.562Z,45.46
2023-04-07T12:32:38.981Z,45.38
2023-04-07T12:35:06.345Z,45.53
2023-04-07T12:37:33.702Z,45.61
2023-04-07T12:40:00.680Z,45.22
2023-04-07T12:42:28.057Z,45.30
2023-04-07T12:44:54.925Z,45.03
2023-04-07T12:47:22.200Z,45.13
2023-04-07T12:49:50.156Z,45.86
2023-04-07T12:52:17.569Z,45.30
2023-04-07T12:54:45.368Z,45.37
2023-04-07T12:57:12.757Z,45.43
2023-04-07T12:59:39.859Z,45.38
2023-04-07T13:02:07.462Z,44.93
2023-04-07T13:04:35.541Z,45.12
2023-04-07T13:07:03.294Z,45.08
2023-04-07T13:09:30.093Z,45.81
2023-04-07T13:11:57.988Z,45.56
2023-04-07T13:14:25.008Z,45.20
2023-04-07T13:16:52.896Z,45.59
2023-04-07T13:19:19.811Z,45.32
2023-04-07T13:21:48.183Z,44.81
2023-04-07T13:24:15.514Z,45.37
2023-04-07T13:26:42.649Z,44.79
2023-04-07T13:29:09.507Z,44.55
2023-04-07T13:31:36.747Z,44.73
2023-04-07T13:34:03.579Z,44.55
2023-04-07T13:36:30.795Z,44.89
2023-04-07T13:38:57.707Z,44.95
2023-04-07T13:41:24.832Z,45.09
2023-04-07T13:43:51.896Z,45.50
2023-04-07T13:48:49.576Z,45.35
2023-04-07T13:51:17.164Z,44.99
2023-04-07T13:53:44.033Z,44.92
2023-04-07T13:56:11.095Z,44.54
2023-04-07T13:58:37.868Z,44.43
2023-04-07T14:01:05.080Z,45.15
2023-04-07T14:03:31.987Z,44.67
2023-04-07T14:06:01.371Z,44.58
2023-04-07T14:08:28.269Z,44.76
2023-04-07T14:10:55.639Z,44.49
2023-04-07T14:13:23.111Z,44.66
2023-04-07T14:15:50.317Z,44.66
2023-04-07T14:18:17.694Z,44.74
2023-04-07T14:20:44.927Z,45.08
2023-04-07T14:23:12.594Z,44.77
2023-04-07T14:25:41.270Z,44.88
2023-04-07T14:28:08.291Z,45.37
2023-04-07T14:30:38.959Z,45.19
2023-04-07T14:33:05.911Z,44.71
2023-04-07T14:35:33.174Z,44.71
2023-04-07T14:38:00.404Z,44.89
2023-04-07T14:40:27.637Z,45.26
2023-04-07T14:43:06.812Z,44.28
2023-04-07T14:45:35.807Z,44.34
2023-04-07T14:48:03.124Z,44.97
2023-04-07T14:50:32.751Z,44.87
2023-04-07T14:53:00.048Z,44.60
2023-04-07T14:55:27.417Z,44.83
2023-04-07T14:57:54.209Z,44.44
2023-04-07T15:00:21.375Z,44.49
2023-04-07T15:02:48.416Z,44.75
2023-04-07T15:05:16.004Z,44.46
2023-04-07T15:07:42.861Z,44.94
2023-04-07T15:10:10.288Z,44.42
2023-04-07T15:12:37.085Z,44.89
2023-04-07T15:15:04.467Z,44.79
2023-04-07T15:17:42.862Z,45.06
2023-04-07T15:20:12.813Z,44.87
2023-04-07T15:22:39.836Z,45.13
2023-04-07T15:25:07.200Z,44.56
2023-04-07T15:27:34.017Z,44.84
2023-04-07T15:30:01.202Z,44.70
2023-04-07T15:32:30.758Z,44.56
2023-04-07T15:34:57.887Z,44.67
2023-04-07T15:37:25.372Z,44.78
2023-04-07T15:39:53.029Z,44.74
2023-04-07T15:42:19.847Z,45.00
2023-04-07T15:44:47.139Z,44.72
2023-04-07T15:47:13.944Z,44.74
2023-04-07T15:49:42.401Z,44.63
2023-04-07T15:52:09.466Z,44.81
2023-04-07T15:54:36.626Z,44.76
2023-04-07T15:57:03.633Z,44.82
2023-04-07T15:59:31.160Z,44.81
2023-04-07T16:01:58.331Z,44.82
2023-04-07T16:04:25.545Z,45.08
2023-04-07T16:06:52.455Z,45.10
2023-04-07T16:09:19.535Z,45.06
2023-04-07T16:11:46.353Z,44.61
2023-04-07T16:14:13.482Z,44.61
2023-04-07T16:16:41.482Z,44.47
2023-04-07T16:19:08.662Z,44.59
2023-04-07T16:21:35.493Z,44.58
2023-04-07T16:24:02.902Z,44.67
2023-04-07T16:26:29.803Z,44.81
2023-04-07T16:28:56.985Z,44.46
2023-04-07T16:31:23.852Z,44.74
2023-04-07T16:33:51.577Z,44.66
2023-04-07T16:36:18.448Z,44.76
2023-04-07T16:38:45.860Z,44.81
2023-04-07T16:41:12.657Z,44.64
2023-04-07T16:43:39.684Z,44.57
2023-04-07T16:46:06.747Z,44.67
2023-04-07T16:48:33.877Z,45.09
2023-04-07T16:51:00.756Z,44.76
2023-04-07T16:53:27.827Z,44.71
2023-04-07T16:55:54.677Z,44.63
2023-04-07T16:58:21.817Z,44.66
2023-04-07T17:00:48.586Z,44.67
2023-04-07T17:03:16.022Z,44.74
2023-04-07T17:05:44.690Z,45.08
2023-04-07T17:08:12.368Z,44.70
2023-04-07T17:10:39.146Z,44.87
2023-04-07T17:13:06.207Z,44.79
2023-04-07T17:15:37.140Z,44.74
2023-04-07T17:18:04.422Z,44.76
2023-04-07T17:20:31.461Z,44.64
2023-04-07T17:22:58.490Z,44.77
2023-04-07T17:25:25.312Z,44.69
2023-04-07T17:27:55.051Z,45.09
2023-04-07T17:30:22.070Z,44.84
2023-04-07T17:32:50.662Z,44.62
2023-04-07T17:35:17.752Z,44.66
2023-04-07T17:37:44.937Z,44.65
2023-04-07T17:40:12.119Z,44.91
2023-04-07T17:42:39.192Z,44.91
2023-04-07T17:45:08.262Z,44.91
2023-04-07T17:47:35.736Z,45.00
2023-04-07T17:50:03.213Z,44.95
2023-04-07T17:52:30.560Z,44.97
2023-04-07T17:54:57.507Z,44.91
2023-04-07T17:57:24.892Z,44.79
2023-04-07T17:59:51.874Z,44.85
2023-04-07T18:02:19.083Z,45.10
2023-04-07T18:04:46.786Z,44.84
2023-04-07T18:07:14.075Z,44.88
2023-04-07T18:09:42.824Z,45.30
2023-04-07T18:12:10.242Z,44.83
2023-04-07T18:14:37.537Z,44.95
2023-04-07T18:17:05.080Z,44.84
2023-04-07T18:19:33.907Z,44.85
2023-04-07T18:22:01.216Z,45.11
2023-04-07T18:24:28.240Z,45.03
2023-04-07T18:26:56.860Z,44.89
2023-04-07T18:29:23.678Z,44.91
2023-04-07T18:31:51.058Z,45.12
2023-04-07T18:34:18.013Z,44.76
2023-04-07T18:36:45.563Z,44.95
2023-04-07T18:39:12.633Z,45.13
2023-04-07T18:41:45.427Z,44.83
2023-04-07T18:44:12.575Z,45.15
2023-04-07T18:46:39.946Z,45.12
2023-04-07T18:49:06.843Z,45.33
2023-04-07T18:51:34.066Z,44.98
2023-04-07T18:54:00.889Z,44.90
2023-04-07T18:56:28.472Z,44.94
2023-04-07T18:58:55.401Z,45.12
2023-04-07T19:01:23.022Z,45.07
2023-04-07T19:03:50.391Z,44.97
2023-04-07T19:06:18.216Z,45.19
2023-04-07T19:08:45.372Z,44.87
2023-04-07T19:11:12.755Z,45.14
2023-04-07T19:13:40.360Z,45.37
2023-04-07T19:16:08.010Z,44.93
2023-04-07T19:18:35.146Z,45.20
2023-04-07T19:21:02.981Z,44.94
2023-04-07T19:23:30.671Z,45.17
2023-04-07T19:25:57.883Z,45.05
2023-04-07T19:28:24.797Z,45.29
2023-04-07T19:30:52.039Z,45.39
2023-04-07T19:33:18.858Z,45.16
2023-04-07T19:35:46.395Z,44.88
2023-04-07T19:38:13.275Z,45.05
2023-04-07T19:40:40.586Z,45.22
2023-04-07T19:43:07.677Z,45.22
2023-04-07T19:45:35.471Z,45.29
2023-04-07T19:48:02.372Z,45.13
2023-04-07T19:50:29.639Z,44.97
2023-04-07T19:52:57.030Z,45.11
2023-04-07T19:55:24.412Z,45.08
2023-04-07T19:57:51.231Z,45.35
2023-04-07T20:00:18.733Z,45.36
2023-04-07T20:02:45.833Z,45.22
2023-04-07T20:05:13.124Z,45.22
2023-04-07T20:07:39.956Z,45.40
2023-04-07T20:10:07.686Z,45.32
2023-04-07T20:12:34.506Z,45.49
2023-04-07T20:15:03.175Z,45.55
2023-04-07T20:17:32.539Z,45.18
2023-04-07T20:19:59.746Z,45.25
2023-04-07T20:22:26.514Z,45.49
2023-04-07T20:24:53.716Z,45.42
2023-04-07T20:27:20.511Z,45.38
2023-04-07T20:29:47.596Z,45.34
2023-04-07T20:32:14.548Z,45.48
2023-04-07T20:34:42.833Z,45.19
2023-04-07T20:37:09.601Z,45.30
2023-04-07T20:39:37.088Z,45.27
2023-04-07T20:42:03.996Z,45.49
2023-04-07T20:44:31.461Z,45.73
2023-04-07T20:46:58.301Z,45.38
2023-04-07T20:49:25.445Z,45.39
2023-04-07T20:51:52.250Z,45.48
2023-04-07T20:54:19.321Z,45.51
2023-04-07T20:56:46.511Z,45.26
2023-04-07T20:59:13.931Z,45.42
2023-04-07T21:01:40.777Z,45.26
2023-04-07T21:04:08.081Z,45.19
2023-04-07T21:06:56.964Z,45.42
2023-04-07T21:09:24.036Z,45.21
2023-04-07T21:11:50.858Z,45.27
2023-04-07T21:14:17.942Z,45.38
2023-04-07T21:16:44.746Z,45.54
2023-04-07T21:19:11.925Z,45.50
2023-04-07T21:21:38.690Z,45.20
2023-04-07T21:24:06.060Z,45.49
2023-04-07T21:26:33.051Z,45.38
2023-04-07T21:29:00.182Z,45.29
2023-04-07T21:31:27.065Z,45.53
2023-04-07T21:33:54.257Z,45.36
2023-04-07T21:36:21.443Z,45.51
2023-04-07T21:38:48.855Z,45.36
2023-04-07T21:41:16.112Z,45.44
2023-04-07T21:43:43.182Z,45.49
2023-04-07T21:46:09.975Z,45.50
2023-04-07T21:48:37.280Z,45.61
2023-04-07T21:51:04.250Z,45.55
2023-04-07T21:53:32.192Z,45.69
2023-04-07T21:55:59.025Z,45.63
2023-04-07T21:58:26.197Z,45.47
2023-04-07T22:00:53.612Z,45.36
2023-04-07T22:03:20.792Z,45.38
2023-04-07T22:05:47.733Z,45.70
2023-04-07T22:08:14.846Z,45.37
2023-04-07T22:10:41.638Z,45.42
2023-04-07T22:13:09.215Z,45.49
2023-04-07T22:15:36.160Z,45.80
2023-04-07T22:18:03.747Z,45.69
2023-04-07T22:20:30.564Z,45.43
2023-04-07T22:22:57.897Z,45.15
2023-04-07T22:25:25.476Z,45.67
2023-04-07T22:27:52.705Z,45.69
2023-04-07T22:30:20.003Z,45.63
2023-04-07T22:32:48.094Z,45.72
2023-04-07T22:35:15.656Z,45.13
2023-04-07T22:37:42.841Z,45.17
2023-04-07T22:40:09.991Z,45.33
2023-04-07T22:42:37.621Z,45.44
2023-04-07T22:45:04.943Z,45.42
2023-04-07T22:47:32.101Z,45.42
2023-04-07T22:49:58.922Z,45.50
2023-04-07T22:52:26.086Z,45.51
2023-04-07T22:54:52.871Z,45.43
2023-04-07T22:57:20.004Z,45.26
2023-04-07T22:59:46.793Z,45.61
2023-04-07T23:02:13.924Z,45.55
2023-04-07T23:04:41.148Z,45.65
2023-04-07T23:07:08.256Z,45.06
2023-04-07T23:09:35.050Z,45.48
2023-04-07T23:12:02.302Z,45.53
2023-04-07T23:14:29.039Z,45.24
2023-04-07T23:16:56.359Z,45.66
2023-04-07T23:19:23.446Z,45.25
2023-04-07T23:21:50.556Z,45.55
2023-04-07T23:24:17.444Z,45.30
2023-04-07T23:26:44.562Z,45.15
2023-04-07T23:29:12.002Z,45.27
2023-04-07T23:31:39.187Z,45.28
2023-04-07T23:34:05.970Z,45.53
2023-04-07T23:36:33.260Z,45.36
2023-04-07T23:39:00.241Z,45.50
2023-04-07T23:41:27.626Z,45.42
2023-04-07T23:43:54.955Z,45.62
2023-04-07T23:46:22.216Z,45.60
2023-04-07T23:48:49.330Z,45.31
2023-04-07T23:51:16.720Z,45.39
2023-04-07T23:53:43.489Z,45.58
2023-04-07T23:56:10.611Z,45.46
2023-04-07T23:58:37.372Z,45.51
